createdAt,value
2018-11-06T00:01:55.089Z,37.53
2018-11-06T00:04:28.685Z,41.13
2018-11-06T00:06:57.025Z,36.10
2018-11-06T00:09:25.376Z,39.90
2018-11-06T00:11:53.670Z,43.50
2018-11-06T00:14:21.994Z,43.83
2018-11-06T00:16:50.324Z,38.63
2018-11-06T00:19:18.838Z,37.47
2018-11-06T00:21:47.156Z,40.70
2018-11-06T00:24:15.456Z,40.83
2018-11-06T00:26:43.786Z,36.40
2018-11-06T00:29:12.101Z,33.93
2018-11-06T00:31:40.424Z,36.77
2018-11-06T00:34:08.793Z,52.07
2018-11-06T00:36:37.097Z,51.57
2018-11-06T00:39:07.020Z,41.47
2018-11-06T00:41:35.382Z,42.53
2018-11-06T00:44:03.745Z,41.47
2018-11-06T00:46:32.074Z,49.27
2018-11-06T00:49:00.400Z,54.83
2018-11-06T00:51:28.737Z,120.20
2018-11-06T00:53:57.064Z,79.77
2018-11-06T00:56:25.389Z,84.03
2018-11-06T00:58:53.701Z,93.13
2018-11-06T01:01:22.038Z,76.23
2018-11-06T01:03:55.828Z,66.47
2018-11-06T01:06:24.284Z,50.70
2018-11-06T01:08:52.597Z,42.17
2018-11-06T01:11:20.926Z,46.00
2018-11-06T01:13:49.235Z,36.30
2018-11-06T01:16:17.561Z,39.67
2018-11-06T01:18:45.859Z,49.40
2018-11-06T01:21:14.186Z,45.97
2018-11-06T01:23:42.480Z,36.10
2018-11-06T01:26:10.804Z,43.90
2018-11-06T01:28:39.107Z,56.03
2018-11-06T01:31:07.422Z,49.17
2018-11-06T01:33:35.733Z,45.10
2018-11-06T01:36:04.067Z,48.93
2018-11-06T01:38:32.372Z,42.57
2018-11-06T01:41:00.697Z,63.20
2018-11-06T01:43:29.002Z,52.90
2018-11-06T01:45:57.334Z,56.83
2018-11-06T01:48:25.669Z,49.67
2018-11-06T01:50:53.993Z,45.53
2018-11-06T01:53:22.301Z,42.53
2018-11-06T01:55:50.629Z,46.07
2018-11-06T01:58:18.945Z,43.47
2018-11-06T02:00:47.268Z,45.37
2018-11-06T02:03:15.572Z,42.03
2018-11-06T02:05:43.897Z,46.70
2018-11-06T02:08:12.200Z,45.70
2018-11-06T02:10:40.524Z,50.03
2018-11-06T02:13:08.828Z,39.80
2018-11-06T02:15:37.165Z,44.83
2018-11-06T02:18:05.818Z,44.40
2018-11-06T02:20:34.120Z,37.87
2018-11-06T02:23:02.444Z,39.27
2018-11-06T02:25:30.745Z,37.97
2018-11-06T02:27:59.074Z,40.03
2018-11-06T02:30:27.401Z,37.90
2018-11-06T02:32:55.728Z,42.57
2018-11-06T02:35:24.034Z,41.00
2018-11-06T02:37:52.373Z,38.37
2018-11-06T02:40:20.688Z,40.07
2018-11-06T02:42:49.026Z,43.67
2018-11-06T02:45:17.345Z,39.20
2018-11-06T02:47:45.692Z,32.47
2018-11-06T02:50:14.720Z,38.73
2018-11-06T02:52:43.625Z,31.60
2018-11-06T02:55:12.405Z,29.67
2018-11-06T02:57:41.104Z,35.53
2018-11-06T03:00:12.009Z,32.43
2018-11-06T03:02:40.339Z,31.03
2018-11-06T03:05:09.501Z,30.20
2018-11-06T03:07:37.824Z,33.17
2018-11-06T03:10:06.727Z,31.57
2018-11-06T03:12:35.032Z,35.27
2018-11-06T03:15:03.328Z,32.43
2018-11-06T03:17:31.656Z,37.17
2018-11-06T03:19:59.965Z,34.73
2018-11-06T03:22:28.293Z,34.93
2018-11-06T03:24:56.593Z,31.73
2018-11-06T03:27:24.937Z,33.10
2018-11-06T03:29:53.261Z,32.67
2018-11-06T03:32:21.577Z,32.47
2018-11-06T03:34:49.869Z,31.57
2018-11-06T03:37:18.189Z,34.20
2018-11-06T03:39:46.584Z,46.37
2018-11-06T03:42:14.917Z,51.97
2018-11-06T03:44:43.240Z,49.17
2018-11-06T03:47:11.569Z,41.50
2018-11-06T03:49:39.875Z,40.63
2018-11-06T03:52:08.204Z,42.17
2018-11-06T03:54:36.645Z,47.23
2018-11-06T03:57:05.045Z,39.03
2018-11-06T03:59:33.368Z,49.67
2018-11-06T04:02:01.707Z,50.63
2018-11-06T04:04:30.013Z,41.57
2018-11-06T04:06:58.333Z,43.20
2018-11-06T04:09:26.641Z,52.43
2018-11-06T04:11:54.961Z,43.63
2018-11-06T04:14:23.280Z,30.60
2018-11-06T04:16:51.578Z,43.40
2018-11-06T04:19:19.917Z,44.33
2018-11-06T04:21:48.215Z,55.23
2018-11-06T04:24:16.538Z,56.90
2018-11-06T04:26:44.842Z,48.20
2018-11-06T04:29:13.161Z,62.07
2018-11-06T04:31:41.453Z,47.67
2018-11-06T04:34:10.103Z,52.17
2018-11-06T04:36:38.411Z,92.90
2018-11-06T04:39:08.299Z,111.13
2018-11-06T04:41:36.625Z,96.57
2018-11-06T04:44:05.714Z,128.83
2018-11-06T04:46:34.169Z,107.57
2018-11-06T04:49:02.502Z,101.87
2018-11-06T04:51:30.805Z,50.17
2018-11-06T04:54:01.023Z,76.30
2018-11-06T04:56:30.093Z,74.77
2018-11-06T04:58:58.481Z,58.43
2018-11-06T05:01:26.953Z,66.47
2018-11-06T05:03:55.276Z,66.00
2018-11-06T05:06:23.592Z,52.73
2018-11-06T05:08:51.907Z,45.60
2018-11-06T05:11:20.221Z,41.93
2018-11-06T05:13:48.595Z,39.93
2018-11-06T05:16:16.884Z,33.47
2018-11-06T05:18:45.211Z,29.80
2018-11-06T05:21:13.550Z,36.83
2018-11-06T05:23:41.878Z,34.37
2018-11-06T05:26:10.181Z,58.60
2018-11-06T05:28:38.503Z,74.47
2018-11-06T05:31:06.816Z,94.87
2018-11-06T05:33:35.142Z,96.07
2018-11-06T05:36:03.461Z,106.70
2018-11-06T05:38:31.782Z,84.83
2018-11-06T05:41:03.465Z,124.07
2018-11-06T05:43:31.792Z,142.60
2018-11-06T05:46:00.111Z,93.00
2018-11-06T05:48:28.445Z,109.60
2018-11-06T05:50:56.755Z,108.70
2018-11-06T05:53:25.078Z,104.77
2018-11-06T05:55:53.412Z,120.33
2018-11-06T05:58:21.828Z,141.17
2018-11-06T06:00:50.168Z,142.93
2018-11-06T06:03:18.509Z,116.83
2018-11-06T06:05:46.831Z,104.67
2018-11-06T06:08:15.133Z,135.23
2018-11-06T06:10:43.459Z,138.57
2018-11-06T06:13:11.782Z,225.73
2018-11-06T06:15:40.124Z,126.00
2018-11-06T06:18:08.441Z,117.70
2018-11-06T06:20:36.769Z,102.97
2018-11-06T06:23:05.217Z,100.90
2018-11-06T06:25:33.537Z,93.30
2018-11-06T06:28:01.846Z,82.27
2018-11-06T06:30:30.169Z,75.27
2018-11-06T06:32:58.464Z,79.40
2018-11-06T06:35:26.781Z,75.30
2018-11-06T06:37:55.089Z,86.40
2018-11-06T06:40:23.418Z,89.10
2018-11-06T06:42:51.730Z,103.00
2018-11-06T06:45:20.285Z,79.73
2018-11-06T06:47:48.596Z,80.00
2018-11-06T06:50:18.178Z,73.33
2018-11-06T06:52:47.045Z,70.00
2018-11-06T06:55:16.017Z,76.10
2018-11-06T06:57:45.349Z,85.87
2018-11-06T07:00:17.324Z,76.80
2018-11-06T07:02:45.785Z,76.40
2018-11-06T07:05:15.501Z,75.43
2018-11-06T07:07:44.173Z,73.23
2018-11-06T07:10:14.612Z,79.43
2018-11-06T07:12:44.011Z,82.67
2018-11-06T07:15:13.657Z,63.50
2018-11-06T07:17:42.506Z,74.17
2018-11-06T07:20:18.997Z,50.23
2018-11-06T07:22:47.318Z,49.90
2018-11-06T07:25:15.842Z,47.00
2018-11-06T07:27:45.333Z,41.80
2018-11-06T07:30:15.670Z,42.40
2018-11-06T07:32:44.541Z,43.87
2018-11-06T07:35:13.635Z,45.23
2018-11-06T07:37:42.219Z,40.33
2018-11-06T07:40:18.255Z,45.33
2018-11-06T07:42:46.550Z,75.67
2018-11-06T07:45:17.199Z,89.47
2018-11-06T07:47:45.534Z,80.40
2018-11-06T07:50:14.399Z,96.27
2018-11-06T07:52:42.932Z,62.50
2018-11-06T07:55:12.868Z,66.60
2018-11-06T07:57:41.324Z,56.37
2018-11-06T08:00:15.355Z,61.10
2018-11-06T08:02:44.632Z,65.57
2018-11-06T08:05:13.145Z,53.57
2018-11-06T08:07:41.605Z,67.50
2018-11-06T08:10:10.708Z,51.53
2018-11-06T08:12:40.184Z,60.47
2018-11-06T08:15:08.987Z,49.23
2018-11-06T08:17:37.364Z,51.13
2018-11-06T08:20:06.245Z,39.87
2018-11-06T08:22:35.461Z,38.23
2018-11-06T08:25:03.816Z,36.33
2018-11-06T08:27:32.192Z,31.60
2018-11-06T08:30:00.514Z,31.23
2018-11-06T08:32:29.392Z,34.63
2018-11-06T08:34:57.304Z,27.43
2018-11-06T08:37:25.633Z,28.67
2018-11-06T08:39:53.962Z,26.00
2018-11-06T08:42:22.311Z,26.83
2018-11-06T08:44:50.606Z,25.47
2018-11-06T08:47:18.927Z,28.70
2018-11-06T08:49:47.224Z,26.30
2018-11-06T08:52:15.549Z,27.27
2018-11-06T08:54:43.914Z,24.97
2018-11-06T08:57:12.205Z,24.70
2018-11-06T08:59:40.509Z,22.87
2018-11-06T09:02:08.833Z,24.97
2018-11-06T09:04:37.133Z,24.10
2018-11-06T09:07:05.701Z,21.63
2018-11-06T09:09:34.009Z,24.00
2018-11-06T09:12:02.385Z,24.00
2018-11-06T09:14:30.686Z,23.43
2018-11-06T09:16:59.042Z,23.70
2018-11-06T09:19:27.433Z,23.47
2018-11-06T09:21:55.761Z,22.50
2018-11-06T09:24:24.060Z,22.77
2018-11-06T09:26:52.411Z,24.23
2018-11-06T09:29:20.701Z,25.50
2018-11-06T09:31:49.022Z,21.43
2018-11-06T09:34:17.316Z,22.87
2018-11-06T09:36:45.658Z,19.43
2018-11-06T09:39:13.977Z,22.03
2018-11-06T09:41:42.444Z,20.50
2018-11-06T09:44:10.770Z,23.30
2018-11-06T09:46:39.108Z,21.00
2018-11-06T09:49:07.969Z,21.10
2018-11-06T09:51:36.573Z,20.33
2018-11-06T09:54:05.688Z,20.73
2018-11-06T09:56:34.010Z,20.33
2018-11-06T09:59:02.514Z,21.67
2018-11-06T10:01:31.113Z,23.47
2018-11-06T10:03:59.417Z,18.43
2018-11-06T10:06:27.928Z,21.57
2018-11-06T10:08:56.154Z,19.90
2018-11-06T10:11:24.504Z,21.53
2018-11-06T10:13:52.817Z,22.13
2018-11-06T10:16:21.148Z,20.70
2018-11-06T10:18:49.452Z,22.57
2018-11-06T10:21:17.824Z,20.67
2018-11-06T10:23:46.119Z,18.40
2018-11-06T10:26:14.453Z,21.83
2018-11-06T10:28:42.756Z,20.67
2018-11-06T10:31:11.084Z,21.33
2018-11-06T10:33:39.385Z,21.07
2018-11-06T10:36:07.710Z,20.63
2018-11-06T10:38:36.017Z,20.97
2018-11-06T10:41:04.344Z,21.63
2018-11-06T10:43:32.661Z,19.47
2018-11-06T10:46:00.977Z,19.40
2018-11-06T10:48:29.301Z,18.37
2018-11-06T10:50:57.605Z,15.03
2018-11-06T10:53:25.932Z,11.27
2018-11-06T10:55:54.237Z,13.77
2018-11-06T10:58:22.573Z,11.20
2018-11-06T11:00:56.391Z,14.30
2018-11-06T11:03:32.875Z,14.63
2018-11-06T11:06:01.532Z,12.27
2018-11-06T11:08:29.856Z,14.80
2018-11-06T11:10:58.490Z,17.87
2018-11-06T11:13:26.914Z,11.10
2018-11-06T11:15:55.197Z,11.87
2018-11-06T11:18:23.549Z,13.63
2018-11-06T11:20:51.868Z,17.40
2018-11-06T11:23:20.234Z,14.47
2018-11-06T11:25:48.631Z,17.07
2018-11-06T11:28:16.889Z,15.77
2018-11-06T11:30:45.206Z,17.03
2018-11-06T11:33:13.533Z,16.57
2018-11-06T11:35:41.828Z,18.70
2018-11-06T11:38:10.154Z,18.83
2018-11-06T11:40:38.465Z,18.50
2018-11-06T11:43:06.795Z,20.07
2018-11-06T11:45:35.154Z,22.70
2018-11-06T11:48:03.469Z,18.30
2018-11-06T11:50:31.786Z,18.47
2018-11-06T11:53:00.104Z,20.73
2018-11-06T11:55:28.422Z,20.53
2018-11-06T11:57:56.768Z,21.50
2018-11-06T12:00:27.699Z,20.90
2018-11-06T12:02:56.396Z,20.70
2018-11-06T12:05:24.833Z,20.90
2018-11-06T12:07:53.175Z,21.77
2018-11-06T12:10:21.517Z,22.87
2018-11-06T12:12:49.836Z,21.70
2018-11-06T12:15:18.465Z,21.70
2018-11-06T12:17:47.376Z,21.20
2018-11-06T12:20:16.162Z,19.63
2018-11-06T12:22:44.500Z,22.00
2018-11-06T12:25:13.357Z,20.43
2018-11-06T12:27:41.548Z,23.53
2018-11-06T12:30:11.865Z,23.67
2018-11-06T12:32:40.777Z,26.87
2018-11-06T12:35:09.892Z,23.67
2018-11-06T12:37:38.493Z,21.27
2018-11-06T12:40:07.986Z,24.47
2018-11-06T12:42:36.798Z,21.67
2018-11-06T12:45:06.436Z,18.63
2018-11-06T12:47:34.750Z,18.97
2018-11-06T12:50:03.119Z,20.63
2018-11-06T12:52:31.400Z,20.77
2018-11-06T12:54:59.776Z,20.40
2018-11-06T12:57:28.096Z,18.67
2018-11-06T12:59:56.428Z,21.07
2018-11-06T13:02:24.749Z,20.40
2018-11-06T13:04:53.044Z,20.57
2018-11-06T13:07:21.379Z,22.37
2018-11-06T13:09:49.763Z,22.43
2018-11-06T13:12:18.031Z,21.67
2018-11-06T13:14:46.369Z,21.17
2018-11-06T13:17:14.804Z,20.73
2018-11-06T13:19:43.019Z,19.47
2018-11-06T13:22:11.338Z,20.60
2018-11-06T13:24:39.644Z,19.93
2018-11-06T13:27:07.966Z,21.57
2018-11-06T13:29:36.281Z,20.37
2018-11-06T13:32:04.637Z,21.70
2018-11-06T13:34:32.945Z,21.97
2018-11-06T13:37:01.298Z,23.30
2018-11-06T13:39:29.615Z,20.40
2018-11-06T13:41:57.984Z,19.77
2018-11-06T13:44:26.695Z,19.23
2018-11-06T13:46:54.649Z,22.03
2018-11-06T13:49:22.952Z,22.27
2018-11-06T13:51:51.281Z,23.40
2018-11-06T13:54:19.628Z,24.13
2018-11-06T13:56:47.925Z,25.17
2018-11-06T13:59:16.320Z,22.10
2018-11-06T14:01:44.648Z,22.60
2018-11-06T14:04:12.967Z,22.67
2018-11-06T14:06:41.297Z,21.20
2018-11-06T14:09:10.730Z,23.30
2018-11-06T14:11:39.124Z,22.90
2018-11-06T14:14:07.884Z,21.57
2018-11-06T14:16:36.488Z,22.13
2018-11-06T14:19:04.888Z,26.33
2018-11-06T14:21:33.194Z,22.40
2018-11-06T14:24:01.545Z,26.57
2018-11-06T14:26:29.848Z,21.47
2018-11-06T14:28:58.171Z,24.80
2018-11-06T14:31:26.648Z,24.50
2018-11-06T14:33:54.990Z,25.37
2018-11-06T14:36:23.299Z,25.77
2018-11-06T14:38:51.660Z,26.37
2018-11-06T14:41:19.978Z,25.93
2018-11-06T14:43:48.310Z,23.63
2018-11-06T14:46:16.635Z,23.50
2018-11-06T14:48:45.151Z,25.07
2018-11-06T14:51:13.328Z,26.80
2018-11-06T14:53:41.656Z,26.03
2018-11-06T14:56:10.094Z,21.40
2018-11-06T14:58:38.301Z,21.73
2018-11-06T15:01:06.616Z,23.47
2018-11-06T15:03:34.945Z,21.83
2018-11-06T15:06:03.250Z,20.60
2018-11-06T15:08:31.564Z,22.30
2018-11-06T15:10:59.861Z,23.37
2018-11-06T15:13:28.198Z,26.00
2018-11-06T15:15:56.503Z,23.77
2018-11-06T15:18:24.829Z,31.17
2018-11-06T15:20:53.141Z,25.53
2018-11-06T15:23:21.457Z,24.97
2018-11-06T15:25:49.778Z,28.87
2018-11-06T15:28:18.217Z,23.70
2018-11-06T15:30:46.532Z,26.77
2018-11-06T15:33:14.856Z,27.23
2018-11-06T15:35:43.179Z,27.73
2018-11-06T15:38:11.518Z,29.03
2018-11-06T15:40:39.816Z,29.13
2018-11-06T15:43:08.145Z,32.63
2018-11-06T15:45:36.456Z,30.27
2018-11-06T15:48:04.966Z,30.70
2018-11-06T15:50:33.264Z,30.83
2018-11-06T15:53:01.590Z,31.40
2018-11-06T15:55:29.898Z,32.53
2018-11-06T15:57:58.215Z,32.87
2018-11-06T16:00:26.605Z,34.03
2018-11-06T16:02:54.949Z,34.97
2018-11-06T16:05:23.284Z,35.53
2018-11-06T16:07:51.647Z,38.07
2018-11-06T16:10:21.350Z,35.30
2018-11-06T16:12:49.677Z,37.00
2018-11-06T16:15:18.001Z,39.40
2018-11-06T16:17:46.717Z,36.97
2018-11-06T16:20:16.425Z,35.43
2018-11-06T16:22:44.866Z,32.50
2018-11-06T16:25:14.717Z,37.73
2018-11-06T16:27:43.385Z,32.70
2018-11-06T16:30:14.137Z,34.97
2018-11-06T16:32:42.664Z,33.53
2018-11-06T16:35:12.662Z,34.17
2018-11-06T16:37:41.501Z,38.77
2018-11-06T16:40:10.422Z,43.13
2018-11-06T16:42:38.981Z,42.40
2018-11-06T16:45:09.417Z,46.33
2018-11-06T16:47:37.749Z,43.70
2018-11-06T16:50:07.513Z,46.30
2018-11-06T16:52:35.829Z,44.03
2018-11-06T16:55:04.369Z,48.37
2018-11-06T16:57:32.810Z,44.80
2018-11-06T17:00:01.300Z,42.60
2018-11-06T17:02:29.468Z,44.67
2018-11-06T17:04:57.803Z,43.37
2018-11-06T17:07:26.109Z,41.40
2018-11-06T17:09:54.436Z,39.87
2018-11-06T17:12:22.745Z,44.10
2018-11-06T17:14:51.069Z,48.70
2018-11-06T17:17:19.392Z,52.23
2018-11-06T17:19:47.716Z,45.07
2018-11-06T17:22:16.053Z,48.77
2018-11-06T17:24:44.377Z,46.83
2018-11-06T17:27:12.686Z,44.37
2018-11-06T17:29:41.017Z,41.90
2018-11-06T17:32:09.320Z,42.50
2018-11-06T17:34:37.653Z,40.00
2018-11-06T17:37:06.285Z,37.43
2018-11-06T17:39:34.668Z,37.67
2018-11-06T17:42:02.942Z,36.53
2018-11-06T17:44:31.269Z,39.97
2018-11-06T17:46:59.568Z,42.73
2018-11-06T17:49:27.906Z,42.17
2018-11-06T17:51:56.218Z,41.23
2018-11-06T17:54:24.566Z,41.00
2018-11-06T17:56:52.848Z,41.43
2018-11-06T17:59:21.192Z,46.13
2018-11-06T18:01:49.514Z,41.77
2018-11-06T18:04:17.996Z,43.77
2018-11-06T18:06:46.188Z,44.37
2018-11-06T18:09:14.601Z,36.17
2018-11-06T18:11:42.899Z,38.60
2018-11-06T18:14:11.221Z,42.63
2018-11-06T18:16:39.609Z,40.80
2018-11-06T18:19:08.270Z,38.80
2018-11-06T18:21:36.740Z,40.07
2018-11-06T18:24:05.396Z,41.53
2018-11-06T18:26:33.758Z,40.93
2018-11-06T18:29:02.065Z,38.90
2018-11-06T18:31:30.420Z,44.00
2018-11-06T18:33:58.773Z,45.80
2018-11-06T18:36:27.121Z,43.33
2018-11-06T18:38:55.432Z,42.77
2018-11-06T18:41:23.770Z,39.57
2018-11-06T18:43:52.068Z,39.57
2018-11-06T18:46:20.409Z,41.47
2018-11-06T18:48:48.737Z,43.10
2018-11-06T18:51:17.110Z,41.27
2018-11-06T18:53:45.422Z,43.00
2018-11-06T18:56:13.771Z,46.50
2018-11-06T18:58:42.094Z,42.33
2018-11-06T19:01:10.473Z,41.77
2018-11-06T19:03:38.781Z,41.93
2018-11-06T19:06:07.118Z,44.27
2018-11-06T19:08:35.644Z,43.17
2018-11-06T19:11:03.973Z,42.60
2018-11-06T19:13:32.271Z,41.07
2018-11-06T19:16:00.620Z,44.83
2018-11-06T19:18:28.926Z,40.13
2018-11-06T19:20:57.280Z,42.87
2018-11-06T19:23:25.580Z,44.60
2018-11-06T19:25:53.910Z,45.87
2018-11-06T19:28:22.213Z,43.83
2018-11-06T19:30:50.594Z,44.20
2018-11-06T19:33:18.888Z,41.27
2018-11-06T19:35:47.285Z,40.10
2018-11-06T19:38:15.601Z,42.63
2018-11-06T19:40:43.958Z,42.13
2018-11-06T19:43:12.268Z,40.33
2018-11-06T19:45:40.616Z,41.97
2018-11-06T19:48:08.961Z,39.47
2018-11-06T19:50:37.310Z,37.53
2018-11-06T19:53:05.629Z,38.80
2018-11-06T19:55:33.972Z,41.67
2018-11-06T19:58:02.466Z,39.73
2018-11-06T20:00:30.852Z,34.13
2018-11-06T20:02:59.189Z,39.13
2018-11-06T20:05:27.617Z,43.10
2018-11-06T20:07:55.837Z,45.00
2018-11-06T20:10:25.141Z,35.80
2018-11-06T20:12:54.405Z,38.80
2018-11-06T20:15:22.755Z,40.67
2018-11-06T20:17:51.098Z,40.27
2018-11-06T20:20:23.905Z,43.17
2018-11-06T20:22:52.277Z,45.20
2018-11-06T20:25:20.689Z,42.17
2018-11-06T20:27:49.076Z,41.40
2018-11-06T20:30:19.779Z,44.13
2018-11-06T20:32:48.140Z,44.87
2018-11-06T20:35:16.772Z,45.47
2018-11-06T20:37:45.308Z,44.23
2018-11-06T20:40:15.448Z,43.50
2018-11-06T20:42:44.471Z,41.17
2018-11-06T20:45:14.790Z,39.53
2018-11-06T20:47:43.515Z,37.60
2018-11-06T20:50:13.684Z,40.53
2018-11-06T20:52:42.573Z,39.50
2018-11-06T20:55:11.882Z,43.50
2018-11-06T20:57:40.267Z,51.47
2018-11-06T21:00:21.582Z,45.57
2018-11-06T21:02:50.780Z,38.20
2018-11-06T21:05:19.115Z,41.27
2018-11-06T21:07:47.957Z,40.97
2018-11-06T21:10:17.718Z,42.00
2018-11-06T21:12:46.358Z,40.40
2018-11-06T21:15:14.718Z,36.33
2018-11-06T21:17:43.365Z,44.40
2018-11-06T21:20:12.675Z,44.20
2018-11-06T21:22:41.044Z,36.80
2018-11-06T21:25:09.976Z,32.57
2018-11-06T21:27:38.972Z,40.63
2018-11-06T21:30:13.132Z,42.33
2018-11-06T21:32:42.641Z,44.10
2018-11-06T21:35:10.988Z,49.13
2018-11-06T21:37:39.687Z,61.60
2018-11-06T21:40:10.033Z,45.33
2018-11-06T21:42:38.558Z,65.63
2018-11-06T21:45:07.935Z,55.77
2018-11-06T21:47:36.272Z,50.33
2018-11-06T21:50:05.833Z,52.70
2018-11-06T21:52:34.160Z,45.40
2018-11-06T21:55:02.652Z,43.80
2018-11-06T21:57:30.989Z,44.03
2018-11-06T21:59:59.288Z,45.23
2018-11-06T22:02:27.718Z,43.30
2018-11-06T22:04:56.017Z,47.33
2018-11-06T22:07:24.461Z,45.93
2018-11-06T22:09:52.777Z,40.43
2018-11-06T22:12:21.160Z,47.57
2018-11-06T22:14:49.430Z,44.20
2018-11-06T22:17:17.753Z,41.93
2018-11-06T22:19:46.058Z,39.57
2018-11-06T22:22:14.398Z,39.83
2018-11-06T22:24:42.737Z,36.03
2018-11-06T22:27:11.045Z,38.83
2018-11-06T22:29:39.397Z,35.77
2018-11-06T22:32:07.740Z,30.53
2018-11-06T22:34:36.032Z,31.33
2018-11-06T22:37:04.404Z,34.93
2018-11-06T22:39:32.677Z,29.47
2018-11-06T22:42:00.983Z,33.23
2018-11-06T22:44:29.299Z,33.07
2018-11-06T22:46:57.606Z,33.20
2018-11-06T22:49:25.934Z,37.27
2018-11-06T22:51:54.235Z,37.93
2018-11-06T22:54:22.552Z,34.50
2018-11-06T22:56:50.850Z,34.53
2018-11-06T22:59:19.161Z,33.47
2018-11-06T23:01:47.469Z,43.60
2018-11-06T23:04:15.841Z,37.27
2018-11-06T23:06:44.222Z,34.23
2018-11-06T23:09:12.489Z,34.50
2018-11-06T23:11:40.793Z,33.00
2018-11-06T23:14:09.132Z,35.00
2018-11-06T23:16:37.445Z,35.60
2018-11-06T23:19:05.840Z,31.03
2018-11-06T23:21:34.210Z,32.57
2018-11-06T23:24:02.532Z,34.67
2018-11-06T23:26:30.883Z,35.00
2018-11-06T23:28:59.189Z,35.37
2018-11-06T23:31:27.550Z,38.37
2018-11-06T23:33:55.857Z,40.43
2018-11-06T23:36:24.776Z,34.03
2018-11-06T23:38:53.100Z,31.97
2018-11-06T23:41:21.404Z,29.90
2018-11-06T23:43:49.725Z,28.00
2018-11-06T23:46:18.046Z,29.17
2018-11-06T23:48:46.384Z,29.13
2018-11-06T23:51:14.680Z,27.50
2018-11-06T23:53:42.997Z,27.33
2018-11-06T23:56:11.327Z,25.00
2018-11-06T23:58:39.677Z,31.20
